sensor_id;sensor_type;location;lat;lon;timestamp;temperature;humidity
52731;DHT22;38624;53.242;6.974;2023-04-25T00:02:18;6.30;99.90
52731;DHT22;38624;53.242;6.974;2023-04-25T00:04:44;6.40;99.90
52731;DHT22;38624;53.242;6.974;2023-04-25T00:07:10;6.40;99.90
52731;DHT22;38624;53.242;6.974;2023-04-25T00:09:36;6.30;99.90
52731;DHT22;38624;53.242;6.974;2023-04-25T00:12:02;6.30;99.90
52731;DHT22;38624;53.242;6.974;2023-04-25T00:14:29;6.20;99.90
52731;DHT22;38624;53.242;6.974;2023-04-25T00:16:55;6.30;99.90
52731;DHT22;38624;53.242;6.974;2023-04-25T00:19:21;6.10;99.90
52731;DHT22;38624;53.242;6.974;2023-04-25T00:21:47;6.10;99.90
52731;DHT22;38624;53.242;6.974;2023-04-25T00:24:13;6.00;99.90
52731;DHT22;38624;53.242;6.974;2023-04-25T00:26:38;5.90;99.90
52731;DHT22;38624;53.242;6.974;2023-04-25T00:29:04;6.00;99.90
52731;DHT22;38624;53.242;6.974;2023-04-25T00:31:30;5.90;99.90
52731;DHT22;38624;53.242;6.974;2023-04-25T00:33:56;6.00;99.90
52731;DHT22;38624;53.242;6.974;2023-04-25T00:43:45;6.00;99.90
52731;DHT22;38624;53.242;6.974;2023-04-25T00:46:12;6.10;99.90
52731;DHT22;38624;53.242;6.974;2023-04-25T00:48:37;6.10;99.90
52731;DHT22;38624;53.242;6.974;2023-04-25T00:51:03;6.10;99.90
52731;DHT22;38624;53.242;6.974;2023-04-25T00:53:30;6.10;99.90
52731;DHT22;38624;53.242;6.974;2023-04-25T00:55:56;6.60;99.90
52731;DHT22;38624;53.242;6.974;2023-04-25T00:58:22;6.10;99.90
52731;DHT22;38624;53.242;6.974;2023-04-25T01:00:51;6.50;99.90
52731;DHT22;38624;53.242;6.974;2023-04-25T01:03:18;6.20;99.90
52731;DHT22;38624;53.242;6.974;2023-04-25T01:05:47;6.20;99.90
52731;DHT22;38624;53.242;6.974;2023-04-25T01:08:13;6.10;99.90
52731;DHT22;38624;53.242;6.974;2023-04-25T01:10:40;6.30;99.90
52731;DHT22;38624;53.242;6.974;2023-04-25T01:13:05;6.50;99.90
52731;DHT22;38624;53.242;6.974;2023-04-25T01:15:32;6.20;99.90
52731;DHT22;38624;53.242;6.974;2023-04-25T01:17:58;6.10;99.90
52731;DHT22;38624;53.242;6.974;2023-04-25T01:20:24;6.10;99.90
52731;DHT22;38624;53.242;6.974;2023-04-25T01:22:53;6.10;99.90
52731;DHT22;38624;53.242;6.974;2023-04-25T01:25:22;6.10;99.90
52731;DHT22;38624;53.242;6.974;2023-04-25T01:27:48;6.10;99.90
52731;DHT22;38624;53.242;6.974;2023-04-25T01:30:14;6.50;99.90
52731;DHT22;38624;53.242;6.974;2023-04-25T01:32:41;6.10;99.90
52731;DHT22;38624;53.242;6.974;2023-04-25T01:35:09;6.00;99.90
52731;DHT22;38624;53.242;6.974;2023-04-25T01:37:37;6.60;99.90
52731;DHT22;38624;53.242;6.974;2023-04-25T01:40:03;6.00;99.90
52731;DHT22;38624;53.242;6.974;2023-04-25T01:42:31;6.00;99.90
52731;DHT22;38624;53.242;6.974;2023-04-25T01:44:57;6.00;99.90
52731;DHT22;38624;53.242;6.974;2023-04-25T01:47:23;6.00;99.90
52731;DHT22;38624;53.242;6.974;2023-04-25T01:49:49;5.90;99.90
52731;DHT22;38624;53.242;6.974;2023-04-25T01:52:15;5.90;99.90
52731;DHT22;38624;53.242;6.974;2023-04-25T01:54:41;6.20;99.90
52731;DHT22;38624;53.242;6.974;2023-04-25T01:57:13;5.90;99.90
52731;DHT22;38624;53.242;6.974;2023-04-25T01:59:39;5.80;99.90
52731;DHT22;38624;53.242;6.974;2023-04-25T02:02:05;5.90;99.90
52731;DHT22;38624;53.242;6.974;2023-04-25T02:04:31;5.80;99.90
52731;DHT22;38624;53.242;6.974;2023-04-25T02:06:56;5.80;99.90
52731;DHT22;38624;53.242;6.974;2023-04-25T02:09:22;6.00;99.90
52731;DHT22;38624;53.242;6.974;2023-04-25T02:11:48;6.20;99.90
52731;DHT22;38624;53.242;6.974;2023-04-25T02:14:14;6.20;99.90
52731;DHT22;38624;53.242;6.974;2023-04-25T02:16:40;6.10;99.90
52731;DHT22;38624;53.242;6.974;2023-04-25T02:19:06;5.80;99.90
52731;DHT22;38624;53.242;6.974;2023-04-25T02:21:32;5.80;99.90
52731;DHT22;38624;53.242;6.974;2023-04-25T02:23:58;5.70;99.90
52731;DHT22;38624;53.242;6.974;2023-04-25T02:26:23;5.70;99.90
52731;DHT22;38624;53.242;6.974;2023-04-25T02:28:50;6.40;99.90
52731;DHT22;38624;53.242;6.974;2023-04-25T02:31:16;5.70;99.90
52731;DHT22;38624;53.242;6.974;2023-04-25T02:33:42;5.70;99.90
52731;DHT22;38624;53.242;6.974;2023-04-25T02:36:08;5.80;99.90
52731;DHT22;38624;53.242;6.974;2023-04-25T02:38:34;5.40;99.90
52731;DHT22;38624;53.242;6.974;2023-04-25T02:41:00;5.40;99.90
52731;DHT22;38624;53.242;6.974;2023-04-25T02:43:25;5.90;99.90
52731;DHT22;38624;53.242;6.974;2023-04-25T02:45:51;5.60;99.90
52731;DHT22;38624;53.242;6.974;2023-04-25T02:48:17;6.00;99.90
52731;DHT22;38624;53.242;6.974;2023-04-25T02:50:42;5.20;99.90
52731;DHT22;38624;53.242;6.974;2023-04-25T02:53:08;6.10;99.90
52731;DHT22;38624;53.242;6.974;2023-04-25T02:55:34;5.30;99.90
52731;DHT22;38624;53.242;6.974;2023-04-25T02:58:00;5.90;99.90
52731;DHT22;38624;53.242;6.974;2023-04-25T03:00:25;5.20;99.90
52731;DHT22;38624;53.242;6.974;2023-04-25T03:02:51;5.40;99.90
52731;DHT22;38624;53.242;6.974;2023-04-25T03:05:17;5.10;99.90
52731;DHT22;38624;53.242;6.974;2023-04-25T03:07:43;5.00;99.90
52731;DHT22;38624;53.242;6.974;2023-04-25T03:10:10;5.00;99.90
52731;DHT22;38624;53.242;6.974;2023-04-25T03:12:36;5.70;99.90
52731;DHT22;38624;53.242;6.974;2023-04-25T03:15:02;4.80;99.90
52731;DHT22;38624;53.242;6.974;2023-04-25T03:17:28;4.80;99.90
52731;DHT22;38624;53.242;6.974;2023-04-25T03:19:54;4.80;99.90
52731;DHT22;38624;53.242;6.974;2023-04-25T03:22:19;4.90;99.90
52731;DHT22;38624;53.242;6.974;2023-04-25T03:24:45;4.90;99.90
52731;DHT22;38624;53.242;6.974;2023-04-25T03:27:11;5.20;99.90
52731;DHT22;38624;53.242;6.974;2023-04-25T03:29:36;5.70;99.90
52731;DHT22;38624;53.242;6.974;2023-04-25T03:32:02;5.00;99.90
52731;DHT22;38624;53.242;6.974;2023-04-25T03:34:28;5.00;99.90
52731;DHT22;38624;53.242;6.974;2023-04-25T03:36:54;5.10;99.90
52731;DHT22;38624;53.242;6.974;2023-04-25T03:39:19;5.10;99.90
52731;DHT22;38624;53.242;6.974;2023-04-25T03:41:45;5.10;99.90
52731;DHT22;38624;53.242;6.974;2023-04-25T03:44:11;5.30;99.90
52731;DHT22;38624;53.242;6.974;2023-04-25T03:46:36;5.00;99.90
52731;DHT22;38624;53.242;6.974;2023-04-25T03:49:02;5.00;99.90
52731;DHT22;38624;53.242;6.974;2023-04-25T03:51:28;4.80;99.90
52731;DHT22;38624;53.242;6.974;2023-04-25T03:53:53;5.20;99.90
52731;DHT22;38624;53.242;6.974;2023-04-25T03:56:19;5.50;99.90
52731;DHT22;38624;53.242;6.974;2023-04-25T03:58:45;4.40;99.90
52731;DHT22;38624;53.242;6.974;2023-04-25T04:01:11;4.40;99.90
52731;DHT22;38624;53.242;6.974;2023-04-25T04:03:37;4.30;99.90
52731;DHT22;38624;53.242;6.974;2023-04-25T04:06:03;5.50;99.90
52731;DHT22;38624;53.242;6.974;2023-04-25T04:08:29;4.30;99.90
52731;DHT22;38624;53.242;6.974;2023-04-25T04:10:57;4.70;99.90
52731;DHT22;38624;53.242;6.974;2023-04-25T04:13:23;5.20;99.90
52731;DHT22;38624;53.242;6.974;2023-04-25T04:15:49;4.90;99.90
52731;DHT22;38624;53.242;6.974;2023-04-25T04:18:16;4.60;99.90
52731;DHT22;38624;53.242;6.974;2023-04-25T04:20:41;4.70;99.90
52731;DHT22;38624;53.242;6.974;2023-04-25T04:23:07;4.70;99.90
52731;DHT22;38624;53.242;6.974;2023-04-25T04:25:33;5.00;99.90
52731;DHT22;38624;53.242;6.974;2023-04-25T04:27:59;4.80;99.90
52731;DHT22;38624;53.242;6.974;2023-04-25T04:30:26;4.90;99.90
52731;DHT22;38624;53.242;6.974;2023-04-25T04:32:55;5.40;99.90
52731;DHT22;38624;53.242;6.974;2023-04-25T04:35:21;5.20;99.90
52731;DHT22;38624;53.242;6.974;2023-04-25T04:37:47;5.40;99.90
52731;DHT22;38624;53.242;6.974;2023-04-25T04:40:14;5.00;99.90
52731;DHT22;38624;53.242;6.974;2023-04-25T04:42:42;4.90;99.90
52731;DHT22;38624;53.242;6.974;2023-04-25T04:45:08;4.90;99.90
52731;DHT22;38624;53.242;6.974;2023-04-25T04:47:35;4.90;99.90
52731;DHT22;38624;53.242;6.974;2023-04-25T04:50:03;4.90;99.90
52731;DHT22;38624;53.242;6.974;2023-04-25T04:52:30;4.80;99.90
52731;DHT22;38624;53.242;6.974;2023-04-25T04:54:56;4.80;99.90
52731;DHT22;38624;53.242;6.974;2023-04-25T04:57:21;5.30;99.90
52731;DHT22;38624;53.242;6.974;2023-04-25T04:59:47;4.80;99.90
52731;DHT22;38624;53.242;6.974;2023-04-25T05:02:13;5.40;99.90
52731;DHT22;38624;53.242;6.974;2023-04-25T05:04:38;4.70;99.90
52731;DHT22;38624;53.242;6.974;2023-04-25T05:07:04;4.80;99.90
52731;DHT22;38624;53.242;6.974;2023-04-25T05:09:30;4.70;99.90
52731;DHT22;38624;53.242;6.974;2023-04-25T05:11:55;4.70;99.90
52731;DHT22;38624;53.242;6.974;2023-04-25T05:14:21;4.70;99.90
52731;DHT22;38624;53.242;6.974;2023-04-25T05:16:48;4.80;99.90
52731;DHT22;38624;53.242;6.974;2023-04-25T05:19:13;4.90;99.90
52731;DHT22;38624;53.242;6.974;2023-04-25T05:21:39;5.00;99.90
52731;DHT22;38624;53.242;6.974;2023-04-25T05:24:05;5.60;99.90
52731;DHT22;38624;53.242;6.974;2023-04-25T05:26:31;5.20;99.90
52731;DHT22;38624;53.242;6.974;2023-04-25T05:28:57;5.40;99.90
52731;DHT22;38624;53.242;6.974;2023-04-25T05:31:23;5.50;99.90
52731;DHT22;38624;53.242;6.974;2023-04-25T05:33:49;5.40;99.90
52731;DHT22;38624;53.242;6.974;2023-04-25T05:36:14;5.30;99.90
52731;DHT22;38624;53.242;6.974;2023-04-25T05:38:40;5.20;99.90
52731;DHT22;38624;53.242;6.974;2023-04-25T05:41:06;5.80;99.90
52731;DHT22;38624;53.242;6.974;2023-04-25T05:43:32;5.60;99.90
52731;DHT22;38624;53.242;6.974;2023-04-25T05:45:58;5.10;99.90
52731;DHT22;38624;53.242;6.974;2023-04-25T05:48:24;5.00;99.90
52731;DHT22;38624;53.242;6.974;2023-04-25T05:50:50;5.00;99.90
52731;DHT22;38624;53.242;6.974;2023-04-25T05:53:17;5.20;99.90
52731;DHT22;38624;53.242;6.974;2023-04-25T05:55:43;5.10;99.90
52731;DHT22;38624;53.242;6.974;2023-04-25T05:58:08;5.00;99.90
52731;DHT22;38624;53.242;6.974;2023-04-25T06:00:34;5.30;99.90
52731;DHT22;38624;53.242;6.974;2023-04-25T06:03:00;4.70;99.90
52731;DHT22;38624;53.242;6.974;2023-04-25T06:05:26;4.80;99.90
52731;DHT22;38624;53.242;6.974;2023-04-25T06:07:52;4.90;99.90
52731;DHT22;38624;53.242;6.974;2023-04-25T06:10:17;4.90;99.90
52731;DHT22;38624;53.242;6.974;2023-04-25T06:12:44;5.10;99.90
52731;DHT22;38624;53.242;6.974;2023-04-25T06:15:10;5.50;99.90
52731;DHT22;38624;53.242;6.974;2023-04-25T06:17:36;5.30;99.90
52731;DHT22;38624;53.242;6.974;2023-04-25T06:20:02;5.60;99.90
52731;DHT22;38624;53.242;6.974;2023-04-25T06:22:28;5.50;99.90
52731;DHT22;38624;53.242;6.974;2023-04-25T06:24:54;5.70;99.90
52731;DHT22;38624;53.242;6.974;2023-04-25T06:27:22;5.60;99.90
52731;DHT22;38624;53.242;6.974;2023-04-25T06:29:48;5.60;99.90
52731;DHT22;38624;53.242;6.974;2023-04-25T06:32:14;5.50;99.90
52731;DHT22;38624;53.242;6.974;2023-04-25T06:34:39;5.60;99.90
52731;DHT22;38624;53.242;6.974;2023-04-25T06:37:05;5.50;99.90
52731;DHT22;38624;53.242;6.974;2023-04-25T06:39:31;5.60;99.90
52731;DHT22;38624;53.242;6.974;2023-04-25T06:41:56;6.30;99.90
52731;DHT22;38624;53.242;6.974;2023-04-25T06:44:22;5.70;99.90
52731;DHT22;38624;53.242;6.974;2023-04-25T06:46:49;5.70;99.90
52731;DHT22;38624;53.242;6.974;2023-04-25T06:49:15;5.80;99.90
52731;DHT22;38624;53.242;6.974;2023-04-25T06:51:41;5.90;99.90
52731;DHT22;38624;53.242;6.974;2023-04-25T06:54:06;6.10;99.90
52731;DHT22;38624;53.242;6.974;2023-04-25T06:56:32;6.20;99.90
52731;DHT22;38624;53.242;6.974;2023-04-25T06:58:58;6.30;99.90
52731;DHT22;38624;53.242;6.974;2023-04-25T07:01:25;6.30;99.90
52731;DHT22;38624;53.242;6.974;2023-04-25T07:03:51;6.50;99.90
52731;DHT22;38624;53.242;6.974;2023-04-25T07:06:17;6.80;99.90
52731;DHT22;38624;53.242;6.974;2023-04-25T07:08:42;6.90;99.90
52731;DHT22;38624;53.242;6.974;2023-04-25T07:11:08;7.00;99.90
52731;DHT22;38624;53.242;6.974;2023-04-25T07:13:34;7.00;99.90
52731;DHT22;38624;53.242;6.974;2023-04-25T07:16:00;6.90;99.90
52731;DHT22;38624;53.242;6.974;2023-04-25T07:18:26;6.80;99.90
52731;DHT22;38624;53.242;6.974;2023-04-25T07:20:51;7.30;99.90
52731;DHT22;38624;53.242;6.974;2023-04-25T07:23:17;6.90;99.90
52731;DHT22;38624;53.242;6.974;2023-04-25T07:25:43;6.70;99.90
52731;DHT22;38624;53.242;6.974;2023-04-25T07:28:08;6.70;99.90
52731;DHT22;38624;53.242;6.974;2023-04-25T07:30:34;6.60;99.90
52731;DHT22;38624;53.242;6.974;2023-04-25T07:33:00;6.70;99.90
52731;DHT22;38624;53.242;6.974;2023-04-25T07:35:26;6.90;99.90
52731;DHT22;38624;53.242;6.974;2023-04-25T07:37:52;6.80;99.90
52731;DHT22;38624;53.242;6.974;2023-04-25T07:40:17;6.80;99.90
52731;DHT22;38624;53.242;6.974;2023-04-25T07:42:43;6.70;99.90
52731;DHT22;38624;53.242;6.974;2023-04-25T07:45:09;6.70;99.90
52731;DHT22;38624;53.242;6.974;2023-04-25T07:47:35;6.70;99.90
52731;DHT22;38624;53.242;6.974;2023-04-25T07:50:02;6.70;99.90
52731;DHT22;38624;53.242;6.974;2023-04-25T07:52:28;6.80;99.90
52731;DHT22;38624;53.242;6.974;2023-04-25T07:54:54;6.90;99.90
52731;DHT22;38624;53.242;6.974;2023-04-25T07:57:20;7.00;99.90
52731;DHT22;38624;53.242;6.974;2023-04-25T07:59:46;7.10;99.90
52731;DHT22;38624;53.242;6.974;2023-04-25T08:02:11;7.30;99.90
52731;DHT22;38624;53.242;6.974;2023-04-25T08:04:37;7.60;99.90
52731;DHT22;38624;53.242;6.974;2023-04-25T08:07:03;7.80;99.90
52731;DHT22;38624;53.242;6.974;2023-04-25T08:09:28;7.90;99.90
52731;DHT22;38624;53.242;6.974;2023-04-25T08:11:59;8.10;99.90
52731;DHT22;38624;53.242;6.974;2023-04-25T08:14:25;8.20;99.90
52731;DHT22;38624;53.242;6.974;2023-04-25T08:16:51;8.10;99.90
52731;DHT22;38624;53.242;6.974;2023-04-25T08:19:17;8.00;99.90
52731;DHT22;38624;53.242;6.974;2023-04-25T08:21:42;7.60;99.90
52731;DHT22;38624;53.242;6.974;2023-04-25T08:24:08;7.50;99.90
52731;DHT22;38624;53.242;6.974;2023-04-25T08:26:34;7.60;99.90
52731;DHT22;38624;53.242;6.974;2023-04-25T08:29:00;7.90;99.90
52731;DHT22;38624;53.242;6.974;2023-04-25T08:31:25;8.10;99.90
52731;DHT22;38624;53.242;6.974;2023-04-25T08:33:51;8.30;99.90
52731;DHT22;38624;53.242;6.974;2023-04-25T08:36:17;8.30;99.90
52731;DHT22;38624;53.242;6.974;2023-04-25T08:38:44;8.30;99.90
52731;DHT22;38624;53.242;6.974;2023-04-25T08:41:11;8.30;99.90
52731;DHT22;38624;53.242;6.974;2023-04-25T08:43:37;8.20;99.90
52731;DHT22;38624;53.242;6.974;2023-04-25T08:46:08;7.90;99.90
52731;DHT22;38624;53.242;6.974;2023-04-25T08:48:33;7.40;99.90
52731;DHT22;38624;53.242;6.974;2023-04-25T08:51:01;7.10;99.90
52731;DHT22;38624;53.242;6.974;2023-04-25T08:53:30;7.00;99.90
52731;DHT22;38624;53.242;6.974;2023-04-25T08:55:58;7.60;99.90
52731;DHT22;38624;53.242;6.974;2023-04-25T08:58:24;7.10;99.90
52731;DHT22;38624;53.242;6.974;2023-04-25T09:00:51;7.40;99.90
52731;DHT22;38624;53.242;6.974;2023-04-25T09:03:17;7.20;99.90
52731;DHT22;38624;53.242;6.974;2023-04-25T09:05:43;7.40;99.90
52731;DHT22;38624;53.242;6.974;2023-04-25T09:08:09;7.40;99.90
52731;DHT22;38624;53.242;6.974;2023-04-25T09:10:36;7.40;99.90
52731;DHT22;38624;53.242;6.974;2023-04-25T09:13:09;7.80;99.90
52731;DHT22;38624;53.242;6.974;2023-04-25T09:15:55;8.10;99.90
52731;DHT22;38624;53.242;6.974;2023-04-25T09:18:25;8.10;99.90
52731;DHT22;38624;53.242;6.974;2023-04-25T09:20:52;8.40;99.90
52731;DHT22;38624;53.242;6.974;2023-04-25T09:23:18;8.30;99.90
52731;DHT22;38624;53.242;6.974;2023-04-25T09:25:50;8.30;99.90
52731;DHT22;38624;53.242;6.974;2023-04-25T09:28:17;8.40;99.90
52731;DHT22;38624;53.242;6.974;2023-04-25T09:30:48;8.10;99.90
52731;DHT22;38624;53.242;6.974;2023-04-25T09:33:13;8.30;99.90
52731;DHT22;38624;53.242;6.974;2023-04-25T09:35:44;8.20;99.90
52731;DHT22;38624;53.242;6.974;2023-04-25T09:38:12;8.30;99.90
52731;DHT22;38624;53.242;6.974;2023-04-25T09:40:43;8.60;99.90
52731;DHT22;38624;53.242;6.974;2023-04-25T09:43:19;9.00;99.90
52731;DHT22;38624;53.242;6.974;2023-04-25T09:45:46;8.90;99.90
52731;DHT22;38624;53.242;6.974;2023-04-25T09:48:22;9.30;99.90
52731;DHT22;38624;53.242;6.974;2023-04-25T09:51:08;8.70;99.90
52731;DHT22;38624;53.242;6.974;2023-04-25T09:53:36;8.00;99.90
52731;DHT22;38624;53.242;6.974;2023-04-25T09:56:07;7.70;99.90
52731;DHT22;38624;53.242;6.974;2023-04-25T09:58:33;7.60;99.90
52731;DHT22;38624;53.242;6.974;2023-04-25T10:01:05;7.70;99.90
52731;DHT22;38624;53.242;6.974;2023-04-25T10:03:33;7.90;99.90
52731;DHT22;38624;53.242;6.974;2023-04-25T10:06:04;7.90;99.90
52731;DHT22;38624;53.242;6.974;2023-04-25T10:08:34;8.20;99.90
52731;DHT22;38624;53.242;6.974;2023-04-25T10:11:05;8.20;99.90
52731;DHT22;38624;53.242;6.974;2023-04-25T10:13:33;8.20;99.90
52731;DHT22;38624;53.242;6.974;2023-04-25T10:16:02;8.30;99.90
52731;DHT22;38624;53.242;6.974;2023-04-25T10:18:30;8.30;99.90
52731;DHT22;38624;53.242;6.974;2023-04-25T10:20:57;8.40;99.90
52731;DHT22;38624;53.242;6.974;2023-04-25T10:23:23;8.70;99.90
52731;DHT22;38624;53.242;6.974;2023-04-25T10:25:53;8.50;99.90
52731;DHT22;38624;53.242;6.974;2023-04-25T10:28:20;8.80;99.90
52731;DHT22;38624;53.242;6.974;2023-04-25T10:31:07;9.00;99.90
52731;DHT22;38624;53.242;6.974;2023-04-25T10:33:37;9.50;99.90
52731;DHT22;38624;53.242;6.974;2023-04-25T10:36:15;9.60;99.90
52731;DHT22;38624;53.242;6.974;2023-04-25T10:38:44;9.30;99.90
52731;DHT22;38624;53.242;6.974;2023-04-25T10:41:12;8.80;99.90
52731;DHT22;38624;53.242;6.974;2023-04-25T10:43:42;8.40;99.90
52731;DHT22;38624;53.242;6.974;2023-04-25T10:46:25;8.20;99.90
52731;DHT22;38624;53.242;6.974;2023-04-25T10:48:55;8.60;99.90
52731;DHT22;38624;53.242;6.974;2023-04-25T10:51:28;8.20;99.90
52731;DHT22;38624;53.242;6.974;2023-04-25T10:54:05;8.50;99.90
52731;DHT22;38624;53.242;6.974;2023-04-25T10:56:32;8.80;99.90
52731;DHT22;38624;53.242;6.974;2023-04-25T10:59:16;9.50;99.90
52731;DHT22;38624;53.242;6.974;2023-04-25T11:01:44;10.00;99.90
52731;DHT22;38624;53.242;6.974;2023-04-25T11:07:10;12.80;99.90
52731;DHT22;38624;53.242;6.974;2023-04-25T11:09:40;12.20;99.90
52731;DHT22;38624;53.242;6.974;2023-04-25T11:12:08;12.90;99.90
52731;DHT22;38624;53.242;6.974;2023-04-25T11:14:35;13.60;99.90
52731;DHT22;38624;53.242;6.974;2023-04-25T11:17:00;15.30;99.90
52731;DHT22;38624;53.242;6.974;2023-04-25T11:19:28;14.10;99.90
52731;DHT22;38624;53.242;6.974;2023-04-25T11:22:01;13.00;99.90
52731;DHT22;38624;53.242;6.974;2023-04-25T11:24:31;12.00;99.90
52731;DHT22;38624;53.242;6.974;2023-04-25T11:27:01;11.40;99.90
52731;DHT22;38624;53.242;6.974;2023-04-25T11:29:33;10.90;99.90
52731;DHT22;38624;53.242;6.974;2023-04-25T11:31:59;13.60;99.90
52731;DHT22;38624;53.242;6.974;2023-04-25T11:34:27;15.60;99.90
52731;DHT22;38624;53.242;6.974;2023-04-25T11:36:56;15.90;99.20
52731;DHT22;38624;53.242;6.974;2023-04-25T11:39:21;15.80;96.20
52731;DHT22;38624;53.242;6.974;2023-04-25T11:41:48;17.10;94.50
52731;DHT22;38624;53.242;6.974;2023-04-25T11:44:16;17.80;95.00
52731;DHT22;38624;53.242;6.974;2023-04-25T11:46:42;17.90;92.30
52731;DHT22;38624;53.242;6.974;2023-04-25T11:49:08;17.20;92.40
52731;DHT22;38624;53.242;6.974;2023-04-25T11:51:41;17.50;90.70
52731;DHT22;38624;53.242;6.974;2023-04-25T11:54:08;19.00;87.00
52731;DHT22;38624;53.242;6.974;2023-04-25T11:56:34;19.80;81.90
52731;DHT22;38624;53.242;6.974;2023-04-25T11:59:02;16.90;82.80
52731;DHT22;38624;53.242;6.974;2023-04-25T12:01:33;15.10;88.20
52731;DHT22;38624;53.242;6.974;2023-04-25T12:04:17;15.90;88.50
52731;DHT22;38624;53.242;6.974;2023-04-25T12:06:44;17.50;89.00
52731;DHT22;38624;53.242;6.974;2023-04-25T12:09:13;17.60;83.90
52731;DHT22;38624;53.242;6.974;2023-04-25T12:11:52;17.80;84.00
52731;DHT22;38624;53.242;6.974;2023-04-25T12:14:26;16.60;82.80
52731;DHT22;38624;53.242;6.974;2023-04-25T12:16:54;14.80;84.10
52731;DHT22;38624;53.242;6.974;2023-04-25T12:19:21;15.10;88.10
52731;DHT22;38624;53.242;6.974;2023-04-25T12:21:47;14.60;92.10
52731;DHT22;38624;53.242;6.974;2023-04-25T12:26:55;16.10;93.30
52731;DHT22;38624;53.242;6.974;2023-04-25T12:29:25;16.10;94.60
52731;DHT22;38624;53.242;6.974;2023-04-25T12:31:52;14.20;94.00
52731;DHT22;38624;53.242;6.974;2023-04-25T12:34:19;14.80;96.60
52731;DHT22;38624;53.242;6.974;2023-04-25T12:36:45;15.10;95.30
52731;DHT22;38624;53.242;6.974;2023-04-25T12:39:19;15.00;95.80
52731;DHT22;38624;53.242;6.974;2023-04-25T12:41:46;14.50;94.80
52731;DHT22;38624;53.242;6.974;2023-04-25T12:44:12;13.60;95.90
52731;DHT22;38624;53.242;6.974;2023-04-25T12:46:38;13.40;95.40
52731;DHT22;38624;53.242;6.974;2023-04-25T12:49:04;12.90;95.80
52731;DHT22;38624;53.242;6.974;2023-04-25T12:51:31;14.40;96.40
52731;DHT22;38624;53.242;6.974;2023-04-25T12:53:58;14.70;94.60
52731;DHT22;38624;53.242;6.974;2023-04-25T12:56:26;14.50;92.00
52731;DHT22;38624;53.242;6.974;2023-04-25T12:58:52;13.50;92.20
52731;DHT22;38624;53.242;6.974;2023-04-25T13:01:19;14.40;92.00
52731;DHT22;38624;53.242;6.974;2023-04-25T13:03:45;14.50;91.70
52731;DHT22;38624;53.242;6.974;2023-04-25T13:06:11;14.40;92.00
52731;DHT22;38624;53.242;6.974;2023-04-25T13:08:38;15.60;90.10
52731;DHT22;38624;53.242;6.974;2023-04-25T13:11:05;16.50;89.50
52731;DHT22;38624;53.242;6.974;2023-04-25T13:13:31;17.40;86.00
52731;DHT22;38624;53.242;6.974;2023-04-25T13:15:57;18.50;84.90
52731;DHT22;38624;53.242;6.974;2023-04-25T13:18:23;17.90;83.30
52731;DHT22;38624;53.242;6.974;2023-04-25T13:20:52;16.40;86.00
52731;DHT22;38624;53.242;6.974;2023-04-25T13:23:19;14.20;86.20
52731;DHT22;38624;53.242;6.974;2023-04-25T13:25:46;13.60;90.60
52731;DHT22;38624;53.242;6.974;2023-04-25T13:28:11;14.80;90.50
52731;DHT22;38624;53.242;6.974;2023-04-25T13:30:37;16.00;90.30
52731;DHT22;38624;53.242;6.974;2023-04-25T13:33:03;16.90;86.10
52731;DHT22;38624;53.242;6.974;2023-04-25T13:35:29;15.50;85.30
52731;DHT22;38624;53.242;6.974;2023-04-25T13:37:56;14.50;88.30
52731;DHT22;38624;53.242;6.974;2023-04-25T13:40:22;13.30;86.20
52731;DHT22;38624;53.242;6.974;2023-04-25T13:42:47;12.80;89.40
52731;DHT22;38624;53.242;6.974;2023-04-25T13:45:13;12.30;92.00
52731;DHT22;38624;53.242;6.974;2023-04-25T13:47:39;13.40;92.70
52731;DHT22;38624;53.242;6.974;2023-04-25T13:50:06;14.30;90.80
52731;DHT22;38624;53.242;6.974;2023-04-25T13:52:32;14.10;90.40
52731;DHT22;38624;53.242;6.974;2023-04-25T13:54:58;14.50;89.80
52731;DHT22;38624;53.242;6.974;2023-04-25T13:57:24;13.50;88.70
52731;DHT22;38624;53.242;6.974;2023-04-25T13:59:51;13.30;90.30
52731;DHT22;38624;53.242;6.974;2023-04-25T14:02:17;12.70;90.80
52731;DHT22;38624;53.242;6.974;2023-04-25T14:04:42;12.30;90.80
52731;DHT22;38624;53.242;6.974;2023-04-25T14:07:08;13.50;91.60
52731;DHT22;38624;53.242;6.974;2023-04-25T14:09:34;13.40;91.50
52731;DHT22;38624;53.242;6.974;2023-04-25T14:11:59;13.70;91.60
52731;DHT22;38624;53.242;6.974;2023-04-25T14:14:26;14.60;90.80
52731;DHT22;38624;53.242;6.974;2023-04-25T14:16:52;14.90;88.50
52731;DHT22;38624;53.242;6.974;2023-04-25T14:19:20;15.40;88.20
52731;DHT22;38624;53.242;6.974;2023-04-25T14:21:46;16.40;88.40
52731;DHT22;38624;53.242;6.974;2023-04-25T14:24:13;16.70;83.70
52731;DHT22;38624;53.242;6.974;2023-04-25T14:26:39;17.40;83.30
52731;DHT22;38624;53.242;6.974;2023-04-25T14:29:05;17.80;83.20
52731;DHT22;38624;53.242;6.974;2023-04-25T14:31:32;17.70;79.80
52731;DHT22;38624;53.242;6.974;2023-04-25T14:33:58;17.50;82.60
52731;DHT22;38624;53.242;6.974;2023-04-25T14:36:24;16.60;78.70
52731;DHT22;38624;53.242;6.974;2023-04-25T14:38:52;15.60;79.30
52731;DHT22;38624;53.242;6.974;2023-04-25T14:41:17;15.20;85.40
52731;DHT22;38624;53.242;6.974;2023-04-25T14:43:43;14.30;84.00
52731;DHT22;38624;53.242;6.974;2023-04-25T14:46:10;13.50;85.10
52731;DHT22;38624;53.242;6.974;2023-04-25T14:48:36;12.80;86.80
52731;DHT22;38624;53.242;6.974;2023-04-25T14:51:02;13.50;88.20
52731;DHT22;38624;53.242;6.974;2023-04-25T14:53:28;14.60;90.50
52731;DHT22;38624;53.242;6.974;2023-04-25T14:55:54;15.40;85.00
52731;DHT22;38624;53.242;6.974;2023-04-25T14:58:19;16.20;84.90
52731;DHT22;38624;53.242;6.974;2023-04-25T15:00:46;16.60;82.40
52731;DHT22;38624;53.242;6.974;2023-04-25T15:03:12;16.90;79.10
52731;DHT22;38624;53.242;6.974;2023-04-25T15:05:39;16.50;79.00
52731;DHT22;38624;53.242;6.974;2023-04-25T15:08:05;15.90;79.40
52731;DHT22;38624;53.242;6.974;2023-04-25T15:10:31;14.80;82.90
52731;DHT22;38624;53.242;6.974;2023-04-25T15:12:57;13.70;90.00
52731;DHT22;38624;53.242;6.974;2023-04-25T15:15:23;11.10;99.90
52731;DHT22;38624;53.242;6.974;2023-04-25T15:17:49;9.80;99.90
52731;DHT22;38624;53.242;6.974;2023-04-25T15:20:16;10.00;99.90
52731;DHT22;38624;53.242;6.974;2023-04-25T15:22:43;11.10;99.90
52731;DHT22;38624;53.242;6.974;2023-04-25T15:25:10;11.80;99.90
52731;DHT22;38624;53.242;6.974;2023-04-25T15:27:37;11.70;99.90
52731;DHT22;38624;53.242;6.974;2023-04-25T15:30:10;12.80;99.90
52731;DHT22;38624;53.242;6.974;2023-04-25T15:32:37;12.80;98.50
52731;DHT22;38624;53.242;6.974;2023-04-25T15:35:04;12.90;97.90
52731;DHT22;38624;53.242;6.974;2023-04-25T15:37:31;12.50;97.00
52731;DHT22;38624;53.242;6.974;2023-04-25T15:40:05;12.50;97.40
52731;DHT22;38624;53.242;6.974;2023-04-25T15:42:45;12.20;97.20
52731;DHT22;38624;53.242;6.974;2023-04-25T15:45:16;12.20;96.30
52731;DHT22;38624;53.242;6.974;2023-04-25T15:47:43;13.00;95.90
52731;DHT22;38624;53.242;6.974;2023-04-25T15:50:09;13.80;94.20
52731;DHT22;38624;53.242;6.974;2023-04-25T15:52:36;14.10;93.00
52731;DHT22;38624;53.242;6.974;2023-04-25T15:55:03;14.20;92.30